sensor_id;sensor_type;location;lat;lon;timestamp;P1;durP1;ratioP1;P2;durP2;ratioP2
2892;SDS011;1456;51.840;12.184;2023-06-22T00:02:17;2.90;;;2.70;;
2892;SDS011;1456;51.840;12.184;2023-06-22T00:04:43;2.00;;;1.80;;
2892;SDS011;1456;51.840;12.184;2023-06-22T00:07:09;2.13;;;1.43;;
2892;SDS011;1456;51.840;12.184;2023-06-22T00:09:34;2.47;;;1.70;;
2892;SDS011;1456;51.840;12.184;2023-06-22T00:12:01;3.93;;;2.43;;
2892;SDS011;1456;51.840;12.184;2023-06-22T00:14:27;1.60;;;1.47;;
2892;SDS011;1456;51.840;12.184;2023-06-22T00:16:52;2.37;;;2.23;;
2892;SDS011;1456;51.840;12.184;2023-06-22T00:19:22;1.27;;;1.27;;
2892;SDS011;1456;51.840;12.184;2023-06-22T00:21:48;5.13;;;2.73;;
2892;SDS011;1456;51.840;12.184;2023-06-22T00:24:18;1.70;;;1.60;;
2892;SDS011;1456;51.840;12.184;2023-06-22T00:26:50;1.60;;;1.43;;
2892;SDS011;1456;51.840;12.184;2023-06-22T00:29:15;3.27;;;3.07;;
2892;SDS011;1456;51.840;12.184;2023-06-22T00:31:42;1.80;;;1.70;;
2892;SDS011;1456;51.840;12.184;2023-06-22T00:34:08;2.40;;;2.07;;
2892;SDS011;1456;51.840;12.184;2023-06-22T00:36:35;2.23;;;2.13;;
2892;SDS011;1456;51.840;12.184;2023-06-22T00:39:01;0.90;;;0.90;;
2892;SDS011;1456;51.840;12.184;2023-06-22T00:41:27;1.83;;;1.73;;
2892;SDS011;1456;51.840;12.184;2023-06-22T00:43:54;2.60;;;2.43;;
2892;SDS011;1456;51.840;12.184;2023-06-22T00:46:20;2.03;;;1.93;;
2892;SDS011;1456;51.840;12.184;2023-06-22T00:48:47;2.30;;;1.90;;
2892;SDS011;1456;51.840;12.184;2023-06-22T00:51:14;2.30;;;2.17;;
2892;SDS011;1456;51.840;12.184;2023-06-22T00:53:40;2.20;;;2.00;;
2892;SDS011;1456;51.840;12.184;2023-06-22T00:56:08;1.83;;;1.73;;
2892;SDS011;1456;51.840;12.184;2023-06-22T00:58:34;2.03;;;2.03;;
2892;SDS011;1456;51.840;12.184;2023-06-22T01:01:01;3.10;;;2.90;;
2892;SDS011;1456;51.840;12.184;2023-06-22T01:03:28;2.30;;;2.20;;
2892;SDS011;1456;51.840;12.184;2023-06-22T01:05:55;2.60;;;2.50;;
2892;SDS011;1456;51.840;12.184;2023-06-22T01:08:31;1.33;;;1.30;;
2892;SDS011;1456;51.840;12.184;2023-06-22T01:14:27;1.90;;;1.70;;
2892;SDS011;1456;51.840;12.184;2023-06-22T01:17:00;2.40;;;1.80;;
2892;SDS011;1456;51.840;12.184;2023-06-22T01:19:41;4.00;;;2.40;;
2892;SDS011;1456;51.840;12.184;2023-06-22T01:22:15;2.40;;;2.30;;
2892;SDS011;1456;51.840;12.184;2023-06-22T01:24:48;1.73;;;1.57;;
2892;SDS011;1456;51.840;12.184;2023-06-22T01:29:57;1.70;;;1.70;;
2892;SDS011;1456;51.840;12.184;2023-06-22T01:32:28;1.70;;;1.70;;
2892;SDS011;1456;51.840;12.184;2023-06-22T01:34:58;4.47;;;2.13;;
2892;SDS011;1456;51.840;12.184;2023-06-22T01:37:26;3.20;;;3.10;;
2892;SDS011;1456;51.840;12.184;2023-06-22T01:39:57;2.03;;;1.77;;
2892;SDS011;1456;51.840;12.184;2023-06-22T01:42:27;1.97;;;1.80;;
2892;SDS011;1456;51.840;12.184;2023-06-22T01:44:53;2.73;;;2.63;;
2892;SDS011;1456;51.840;12.184;2023-06-22T01:47:20;2.50;;;2.40;;
2892;SDS011;1456;51.840;12.184;2023-06-22T01:49:48;2.00;;;1.90;;
2892;SDS011;1456;51.840;12.184;2023-06-22T01:52:17;1.60;;;1.50;;
2892;SDS011;1456;51.840;12.184;2023-06-22T01:54:46;2.60;;;2.40;;
2892;SDS011;1456;51.840;12.184;2023-06-22T01:57:13;2.30;;;2.17;;
2892;SDS011;1456;51.840;12.184;2023-06-22T01:59:44;1.90;;;1.80;;
2892;SDS011;1456;51.840;12.184;2023-06-22T02:02:21;3.17;;;2.97;;
2892;SDS011;1456;51.840;12.184;2023-06-22T02:04:56;3.93;;;3.73;;
2892;SDS011;1456;51.840;12.184;2023-06-22T02:07:26;3.00;;;2.80;;
2892;SDS011;1456;51.840;12.184;2023-06-22T02:09:58;2.33;;;1.80;;
2892;SDS011;1456;51.840;12.184;2023-06-22T02:12:26;3.07;;;2.97;;
2892;SDS011;1456;51.840;12.184;2023-06-22T02:14:54;2.90;;;2.80;;
2892;SDS011;1456;51.840;12.184;2023-06-22T02:17:20;1.73;;;1.67;;
2892;SDS011;1456;51.840;12.184;2023-06-22T02:19:46;3.33;;;3.20;;
2892;SDS011;1456;51.840;12.184;2023-06-22T02:22:12;2.80;;;2.67;;
2892;SDS011;1456;51.840;12.184;2023-06-22T02:24:38;2.43;;;2.00;;
2892;SDS011;1456;51.840;12.184;2023-06-22T02:27:04;2.87;;;2.50;;
2892;SDS011;1456;51.840;12.184;2023-06-22T02:29:32;3.90;;;2.43;;
2892;SDS011;1456;51.840;12.184;2023-06-22T02:31:58;2.80;;;2.00;;
2892;SDS011;1456;51.840;12.184;2023-06-22T02:34:24;1.73;;;1.73;;
2892;SDS011;1456;51.840;12.184;2023-06-22T02:36:49;3.00;;;2.80;;
2892;SDS011;1456;51.840;12.184;2023-06-22T02:39:22;4.17;;;3.23;;
2892;SDS011;1456;51.840;12.184;2023-06-22T02:41:49;3.47;;;3.17;;
2892;SDS011;1456;51.840;12.184;2023-06-22T02:44:16;2.50;;;2.40;;
2892;SDS011;1456;51.840;12.184;2023-06-22T02:46:42;5.00;;;3.73;;
2892;SDS011;1456;51.840;12.184;2023-06-22T02:49:07;2.40;;;2.20;;
2892;SDS011;1456;51.840;12.184;2023-06-22T02:51:33;2.80;;;2.60;;
2892;SDS011;1456;51.840;12.184;2023-06-22T02:53:59;2.30;;;2.20;;
2892;SDS011;1456;51.840;12.184;2023-06-22T02:59:47;1.70;;;1.60;;
2892;SDS011;1456;51.840;12.184;2023-06-22T03:02:13;2.30;;;2.10;;
2892;SDS011;1456;51.840;12.184;2023-06-22T03:04:39;3.90;;;3.60;;
2892;SDS011;1456;51.840;12.184;2023-06-22T03:07:04;3.23;;;3.03;;
2892;SDS011;1456;51.840;12.184;2023-06-22T03:09:30;2.73;;;2.60;;
2892;SDS011;1456;51.840;12.184;2023-06-22T03:11:56;2.77;;;2.60;;
2892;SDS011;1456;51.840;12.184;2023-06-22T03:14:22;2.47;;;2.37;;
2892;SDS011;1456;51.840;12.184;2023-06-22T03:16:49;1.73;;;1.73;;
2892;SDS011;1456;51.840;12.184;2023-06-22T03:19:15;4.17;;;2.97;;
2892;SDS011;1456;51.840;12.184;2023-06-22T03:21:42;1.90;;;1.90;;
2892;SDS011;1456;51.840;12.184;2023-06-22T03:24:08;1.50;;;1.43;;
2892;SDS011;1456;51.840;12.184;2023-06-22T03:26:34;3.13;;;2.97;;
2892;SDS011;1456;51.840;12.184;2023-06-22T03:29:01;4.37;;;3.50;;
2892;SDS011;1456;51.840;12.184;2023-06-22T03:31:27;3.47;;;3.30;;
2892;SDS011;1456;51.840;12.184;2023-06-22T03:33:53;2.83;;;2.47;;
2892;SDS011;1456;51.840;12.184;2023-06-22T03:36:20;2.20;;;1.17;;
2892;SDS011;1456;51.840;12.184;2023-06-22T03:38:47;2.87;;;2.03;;
2892;SDS011;1456;51.840;12.184;2023-06-22T03:41:14;5.83;;;3.37;;
2892;SDS011;1456;51.840;12.184;2023-06-22T03:43:39;1.50;;;1.50;;
2892;SDS011;1456;51.840;12.184;2023-06-22T03:46:06;1.70;;;1.60;;
2892;SDS011;1456;51.840;12.184;2023-06-22T03:48:33;3.00;;;2.67;;
2892;SDS011;1456;51.840;12.184;2023-06-22T03:50:59;2.10;;;1.77;;
2892;SDS011;1456;51.840;12.184;2023-06-22T03:53:27;1.73;;;1.63;;
2892;SDS011;1456;51.840;12.184;2023-06-22T03:55:53;2.60;;;2.33;;
2892;SDS011;1456;51.840;12.184;2023-06-22T03:58:19;2.70;;;2.60;;
2892;SDS011;1456;51.840;12.184;2023-06-22T04:00:47;1.60;;;1.50;;
2892;SDS011;1456;51.840;12.184;2023-06-22T04:03:14;5.87;;;2.63;;
2892;SDS011;1456;51.840;12.184;2023-06-22T04:05:40;7.03;;;3.10;;
2892;SDS011;1456;51.840;12.184;2023-06-22T04:08:06;2.77;;;2.67;;
2892;SDS011;1456;51.840;12.184;2023-06-22T04:10:31;4.83;;;1.90;;
2892;SDS011;1456;51.840;12.184;2023-06-22T04:12:57;3.00;;;2.80;;
2892;SDS011;1456;51.840;12.184;2023-06-22T04:15:24;3.17;;;2.00;;
2892;SDS011;1456;51.840;12.184;2023-06-22T04:17:49;3.90;;;3.70;;
2892;SDS011;1456;51.840;12.184;2023-06-22T04:20:15;2.70;;;2.50;;
2892;SDS011;1456;51.840;12.184;2023-06-22T04:22:41;3.20;;;3.03;;
2892;SDS011;1456;51.840;12.184;2023-06-22T04:25:06;2.63;;;2.07;;
2892;SDS011;1456;51.840;12.184;2023-06-22T04:27:33;3.40;;;3.17;;
2892;SDS011;1456;51.840;12.184;2023-06-22T04:30:05;3.40;;;3.20;;
2892;SDS011;1456;51.840;12.184;2023-06-22T04:32:32;2.73;;;2.50;;
2892;SDS011;1456;51.840;12.184;2023-06-22T04:34:58;2.70;;;2.50;;
2892;SDS011;1456;51.840;12.184;2023-06-22T04:37:25;4.60;;;4.27;;
2892;SDS011;1456;51.840;12.184;2023-06-22T04:39:51;3.43;;;3.23;;
2892;SDS011;1456;51.840;12.184;2023-06-22T04:42:18;3.10;;;2.10;;
2892;SDS011;1456;51.840;12.184;2023-06-22T04:44:43;2.83;;;2.73;;
2892;SDS011;1456;51.840;12.184;2023-06-22T04:47:09;3.23;;;3.03;;
2892;SDS011;1456;51.840;12.184;2023-06-22T04:49:35;5.37;;;3.40;;
2892;SDS011;1456;51.840;12.184;2023-06-22T04:52:05;3.23;;;2.90;;
2892;SDS011;1456;51.840;12.184;2023-06-22T04:54:32;2.10;;;2.00;;
2892;SDS011;1456;51.840;12.184;2023-06-22T04:57:02;3.23;;;2.93;;
2892;SDS011;1456;51.840;12.184;2023-06-22T04:59:30;3.27;;;3.17;;
2892;SDS011;1456;51.840;12.184;2023-06-22T05:01:57;2.70;;;2.60;;
2892;SDS011;1456;51.840;12.184;2023-06-22T05:04:24;4.57;;;4.30;;
2892;SDS011;1456;51.840;12.184;2023-06-22T05:06:52;4.10;;;4.00;;
2892;SDS011;1456;51.840;12.184;2023-06-22T05:09:19;4.30;;;3.90;;
2892;SDS011;1456;51.840;12.184;2023-06-22T05:11:46;5.87;;;4.93;;
2892;SDS011;1456;51.840;12.184;2023-06-22T05:14:12;3.80;;;3.70;;
2892;SDS011;1456;51.840;12.184;2023-06-22T05:16:40;4.50;;;4.20;;
2892;SDS011;1456;51.840;12.184;2023-06-22T05:19:07;4.07;;;3.90;;
2892;SDS011;1456;51.840;12.184;2023-06-22T05:21:33;4.63;;;4.23;;
2892;SDS011;1456;51.840;12.184;2023-06-22T05:23:58;5.43;;;5.23;;
2892;SDS011;1456;51.840;12.184;2023-06-22T05:26:28;3.97;;;3.87;;
2892;SDS011;1456;51.840;12.184;2023-06-22T05:28:59;10.60;;;5.03;;
2892;SDS011;1456;51.840;12.184;2023-06-22T05:31:28;5.30;;;4.93;;
2892;SDS011;1456;51.840;12.184;2023-06-22T05:33:55;5.60;;;5.20;;
2892;SDS011;1456;51.840;12.184;2023-06-22T05:36:21;6.20;;;5.67;;
2892;SDS011;1456;51.840;12.184;2023-06-22T05:38:50;4.70;;;4.47;;
2892;SDS011;1456;51.840;12.184;2023-06-22T05:41:20;6.00;;;5.70;;
2892;SDS011;1456;51.840;12.184;2023-06-22T05:43:47;5.90;;;5.60;;
2892;SDS011;1456;51.840;12.184;2023-06-22T05:46:13;4.97;;;4.63;;
2892;SDS011;1456;51.840;12.184;2023-06-22T05:48:38;5.53;;;4.97;;
2892;SDS011;1456;51.840;12.184;2023-06-22T05:51:05;4.70;;;4.57;;
2892;SDS011;1456;51.840;12.184;2023-06-22T05:53:30;4.67;;;4.57;;
2892;SDS011;1456;51.840;12.184;2023-06-22T05:55:56;5.07;;;3.40;;
2892;SDS011;1456;51.840;12.184;2023-06-22T05:58:23;4.70;;;4.50;;
2892;SDS011;1456;51.840;12.184;2023-06-22T06:00:48;3.57;;;3.40;;
2892;SDS011;1456;51.840;12.184;2023-06-22T06:03:14;4.73;;;4.40;;
2892;SDS011;1456;51.840;12.184;2023-06-22T06:05:41;5.27;;;4.97;;
2892;SDS011;1456;51.840;12.184;2023-06-22T06:08:09;5.30;;;4.80;;
2892;SDS011;1456;51.840;12.184;2023-06-22T06:10:36;5.20;;;4.80;;
2892;SDS011;1456;51.840;12.184;2023-06-22T06:13:03;5.00;;;4.70;;
2892;SDS011;1456;51.840;12.184;2023-06-22T06:15:31;4.23;;;4.13;;
2892;SDS011;1456;51.840;12.184;2023-06-22T06:17:58;6.73;;;6.53;;
2892;SDS011;1456;51.840;12.184;2023-06-22T06:20:24;6.17;;;5.93;;
2892;SDS011;1456;51.840;12.184;2023-06-22T06:22:52;7.37;;;6.97;;
2892;SDS011;1456;51.840;12.184;2023-06-22T06:25:18;5.90;;;5.50;;
2892;SDS011;1456;51.840;12.184;2023-06-22T06:27:48;7.33;;;7.13;;
2892;SDS011;1456;51.840;12.184;2023-06-22T06:30:16;7.23;;;6.70;;
2892;SDS011;1456;51.840;12.184;2023-06-22T06:32:44;7.50;;;7.10;;
2892;SDS011;1456;51.840;12.184;2023-06-22T06:35:11;11.10;;;9.53;;
2892;SDS011;1456;51.840;12.184;2023-06-22T06:37:40;6.73;;;6.53;;
2892;SDS011;1456;51.840;12.184;2023-06-22T06:40:07;9.30;;;8.50;;
2892;SDS011;1456;51.840;12.184;2023-06-22T06:42:35;7.07;;;6.83;;
2892;SDS011;1456;51.840;12.184;2023-06-22T06:45:07;6.60;;;6.40;;
2892;SDS011;1456;51.840;12.184;2023-06-22T06:47:33;8.63;;;8.23;;
2892;SDS011;1456;51.840;12.184;2023-06-22T06:49:59;7.57;;;7.37;;
2892;SDS011;1456;51.840;12.184;2023-06-22T06:52:25;7.10;;;6.90;;
2892;SDS011;1456;51.840;12.184;2023-06-22T06:54:51;9.30;;;8.73;;
2892;SDS011;1456;51.840;12.184;2023-06-22T06:57:20;8.87;;;8.67;;
2892;SDS011;1456;51.840;12.184;2023-06-22T06:59:47;11.17;;;10.47;;
2892;SDS011;1456;51.840;12.184;2023-06-22T07:02:13;9.60;;;9.10;;
2892;SDS011;1456;51.840;12.184;2023-06-22T07:04:39;11.43;;;10.83;;
2892;SDS011;1456;51.840;12.184;2023-06-22T07:07:05;11.10;;;10.20;;
2892;SDS011;1456;51.840;12.184;2023-06-22T07:09:32;11.27;;;10.53;;
2892;SDS011;1456;51.840;12.184;2023-06-22T07:11:57;10.60;;;9.93;;
2892;SDS011;1456;51.840;12.184;2023-06-22T07:14:23;10.60;;;10.17;;
2892;SDS011;1456;51.840;12.184;2023-06-22T07:16:49;10.90;;;10.40;;
2892;SDS011;1456;51.840;12.184;2023-06-22T07:19:15;9.53;;;9.23;;
2892;SDS011;1456;51.840;12.184;2023-06-22T07:21:40;10.63;;;10.23;;
2892;SDS011;1456;51.840;12.184;2023-06-22T07:24:06;11.10;;;10.67;;
2892;SDS011;1456;51.840;12.184;2023-06-22T07:26:32;10.90;;;10.50;;
2892;SDS011;1456;51.840;12.184;2023-06-22T07:28:58;9.77;;;9.33;;
2892;SDS011;1456;51.840;12.184;2023-06-22T07:31:24;10.37;;;9.77;;
2892;SDS011;1456;51.840;12.184;2023-06-22T07:33:51;8.80;;;8.50;;
2892;SDS011;1456;51.840;12.184;2023-06-22T07:36:17;10.50;;;10.00;;
2892;SDS011;1456;51.840;12.184;2023-06-22T07:38:43;10.50;;;10.20;;
2892;SDS011;1456;51.840;12.184;2023-06-22T07:41:09;12.67;;;12.20;;
2892;SDS011;1456;51.840;12.184;2023-06-22T07:43:34;11.00;;;10.50;;
2892;SDS011;1456;51.840;12.184;2023-06-22T07:46:02;11.00;;;10.60;;
2892;SDS011;1456;51.840;12.184;2023-06-22T07:48:28;10.63;;;10.20;;
2892;SDS011;1456;51.840;12.184;2023-06-22T07:50:54;11.73;;;11.20;;
2892;SDS011;1456;51.840;12.184;2023-06-22T07:53:20;11.53;;;11.03;;
2892;SDS011;1456;51.840;12.184;2023-06-22T07:55:47;12.23;;;11.53;;
2892;SDS011;1456;51.840;12.184;2023-06-22T07:58:12;12.30;;;11.90;;
2892;SDS011;1456;51.840;12.184;2023-06-22T08:00:38;13.70;;;12.73;;
2892;SDS011;1456;51.840;12.184;2023-06-22T08:03:04;11.67;;;11.17;;
2892;SDS011;1456;51.840;12.184;2023-06-22T08:05:30;11.00;;;10.60;;
2892;SDS011;1456;51.840;12.184;2023-06-22T08:07:56;12.70;;;12.13;;
2892;SDS011;1456;51.840;12.184;2023-06-22T08:10:22;11.30;;;10.90;;
2892;SDS011;1456;51.840;12.184;2023-06-22T08:12:48;13.30;;;12.70;;
2892;SDS011;1456;51.840;12.184;2023-06-22T08:15:14;8.43;;;8.00;;
2892;SDS011;1456;51.840;12.184;2023-06-22T08:17:39;9.97;;;9.47;;
2892;SDS011;1456;51.840;12.184;2023-06-22T08:20:06;9.37;;;9.07;;
2892;SDS011;1456;51.840;12.184;2023-06-22T08:22:37;11.00;;;10.40;;
2892;SDS011;1456;51.840;12.184;2023-06-22T08:25:04;11.20;;;10.70;;
2892;SDS011;1456;51.840;12.184;2023-06-22T08:27:31;9.33;;;8.93;;
2892;SDS011;1456;51.840;12.184;2023-06-22T08:29:58;8.90;;;8.53;;
2892;SDS011;1456;51.840;12.184;2023-06-22T08:32:27;9.33;;;8.97;;
2892;SDS011;1456;51.840;12.184;2023-06-22T08:34:56;9.47;;;9.17;;
2892;SDS011;1456;51.840;12.184;2023-06-22T08:37:22;9.33;;;9.13;;
2892;SDS011;1456;51.840;12.184;2023-06-22T08:39:51;10.83;;;10.43;;
2892;SDS011;1456;51.840;12.184;2023-06-22T08:42:16;10.87;;;10.37;;
2892;SDS011;1456;51.840;12.184;2023-06-22T08:44:42;12.63;;;11.67;;
2892;SDS011;1456;51.840;12.184;2023-06-22T08:47:07;10.93;;;10.53;;
2892;SDS011;1456;51.840;12.184;2023-06-22T08:49:33;11.30;;;10.40;;
2892;SDS011;1456;51.840;12.184;2023-06-22T08:52:00;10.73;;;10.23;;
2892;SDS011;1456;51.840;12.184;2023-06-22T08:54:27;11.43;;;10.83;;
2892;SDS011;1456;51.840;12.184;2023-06-22T08:56:53;11.20;;;10.70;;
2892;SDS011;1456;51.840;12.184;2023-06-22T08:59:20;11.80;;;11.30;;
2892;SDS011;1456;51.840;12.184;2023-06-22T09:01:46;11.33;;;10.83;;
2892;SDS011;1456;51.840;12.184;2023-06-22T09:04:14;11.70;;;11.27;;
2892;SDS011;1456;51.840;12.184;2023-06-22T09:06:42;11.70;;;11.30;;
2892;SDS011;1456;51.840;12.184;2023-06-22T09:09:12;11.73;;;11.23;;
2892;SDS011;1456;51.840;12.184;2023-06-22T09:11:39;13.13;;;12.23;;
2892;SDS011;1456;51.840;12.184;2023-06-22T09:14:06;12.20;;;11.20;;
2892;SDS011;1456;51.840;12.184;2023-06-22T09:16:33;11.77;;;11.27;;
2892;SDS011;1456;51.840;12.184;2023-06-22T09:18:59;12.27;;;11.47;;
2892;SDS011;1456;51.840;12.184;2023-06-22T09:21:25;10.80;;;10.50;;
2892;SDS011;1456;51.840;12.184;2023-06-22T09:23:50;17.67;;;16.93;;
2892;SDS011;1456;51.840;12.184;2023-06-22T09:26:17;15.43;;;14.90;;
2892;SDS011;1456;51.840;12.184;2023-06-22T09:28:43;17.20;;;16.40;;
2892;SDS011;1456;51.840;12.184;2023-06-22T09:31:13;16.33;;;15.67;;
2892;SDS011;1456;51.840;12.184;2023-06-22T09:33:39;16.83;;;16.00;;
2892;SDS011;1456;51.840;12.184;2023-06-22T09:36:06;15.20;;;14.77;;
2892;SDS011;1456;51.840;12.184;2023-06-22T09:38:38;17.10;;;16.50;;
2892;SDS011;1456;51.840;12.184;2023-06-22T09:41:06;17.20;;;16.60;;
2892;SDS011;1456;51.840;12.184;2023-06-22T09:43:32;17.03;;;16.30;;
2892;SDS011;1456;51.840;12.184;2023-06-22T09:46:00;18.57;;;17.60;;
2892;SDS011;1456;51.840;12.184;2023-06-22T09:48:27;18.13;;;17.23;;
2892;SDS011;1456;51.840;12.184;2023-06-22T09:50:53;18.63;;;17.73;;
2892;SDS011;1456;51.840;12.184;2023-06-22T09:53:19;17.03;;;16.30;;
2892;SDS011;1456;51.840;12.184;2023-06-22T09:55:45;18.37;;;17.67;;
2892;SDS011;1456;51.840;12.184;2023-06-22T09:58:10;17.87;;;17.37;;
2892;SDS011;1456;51.840;12.184;2023-06-22T10:00:36;18.27;;;17.10;;
2892;SDS011;1456;51.840;12.184;2023-06-22T10:03:02;17.20;;;16.60;;
2892;SDS011;1456;51.840;12.184;2023-06-22T10:05:29;16.23;;;15.67;;
2892;SDS011;1456;51.840;12.184;2023-06-22T10:07:56;18.43;;;17.60;;
2892;SDS011;1456;51.840;12.184;2023-06-22T10:10:24;17.67;;;16.77;;
2892;SDS011;1456;51.840;12.184;2023-06-22T10:12:56;15.87;;;15.37;;
2892;SDS011;1456;51.840;12.184;2023-06-22T10:15:27;19.43;;;18.77;;
2892;SDS011;1456;51.840;12.184;2023-06-22T10:17:54;18.33;;;17.73;;
2892;SDS011;1456;51.840;12.184;2023-06-22T10:20:23;19.13;;;18.47;;
2892;SDS011;1456;51.840;12.184;2023-06-22T10:22:49;20.97;;;19.80;;
2892;SDS011;1456;51.840;12.184;2023-06-22T10:25:16;20.03;;;19.23;;
2892;SDS011;1456;51.840;12.184;2023-06-22T10:27:42;19.07;;;18.30;;
2892;SDS011;1456;51.840;12.184;2023-06-22T10:30:09;17.07;;;16.57;;
2892;SDS011;1456;51.840;12.184;2023-06-22T10:32:38;18.47;;;17.77;;
2892;SDS011;1456;51.840;12.184;2023-06-22T10:35:05;18.97;;;18.30;;
2892;SDS011;1456;51.840;12.184;2023-06-22T10:37:31;19.20;;;18.40;;
2892;SDS011;1456;51.840;12.184;2023-06-22T10:39:56;18.83;;;18.20;;
2892;SDS011;1456;51.840;12.184;2023-06-22T10:42:22;18.30;;;17.80;;
2892;SDS011;1456;51.840;12.184;2023-06-22T10:44:48;20.00;;;19.30;;
2892;SDS011;1456;51.840;12.184;2023-06-22T10:47:16;19.70;;;18.77;;
2892;SDS011;1456;51.840;12.184;2023-06-22T10:49:42;20.40;;;19.80;;
2892;SDS011;1456;51.840;12.184;2023-06-22T10:52:08;21.60;;;20.70;;
2892;SDS011;1456;51.840;12.184;2023-06-22T10:54:35;23.03;;;22.13;;
2892;SDS011;1456;51.840;12.184;2023-06-22T10:57:06;22.97;;;21.93;;
2892;SDS011;1456;51.840;12.184;2023-06-22T10:59:31;23.33;;;22.03;;
2892;SDS011;1456;51.840;12.184;2023-06-22T11:01:57;20.23;;;19.63;;
2892;SDS011;1456;51.840;12.184;2023-06-22T11:04:23;21.50;;;20.70;;
2892;SDS011;1456;51.840;12.184;2023-06-22T11:06:49;20.23;;;19.63;;
2892;SDS011;1456;51.840;12.184;2023-06-22T11:09:15;20.80;;;20.10;;
2892;SDS011;1456;51.840;12.184;2023-06-22T11:11:47;21.13;;;20.20;;
2892;SDS011;1456;51.840;12.184;2023-06-22T11:14:15;20.43;;;19.73;;
2892;SDS011;1456;51.840;12.184;2023-06-22T11:16:40;23.40;;;22.50;;
2892;SDS011;1456;51.840;12.184;2023-06-22T11:19:08;22.10;;;21.30;;
2892;SDS011;1456;51.840;12.184;2023-06-22T11:21:35;21.83;;;21.17;;
2892;SDS011;1456;51.840;12.184;2023-06-22T11:24:01;21.00;;;20.30;;
2892;SDS011;1456;51.840;12.184;2023-06-22T11:26:27;21.33;;;20.60;;
2892;SDS011;1456;51.840;12.184;2023-06-22T11:28:53;21.50;;;20.70;;
2892;SDS011;1456;51.840;12.184;2023-06-22T11:31:21;22.80;;;21.90;;
2892;SDS011;1456;51.840;12.184;2023-06-22T11:33:47;22.33;;;21.53;;
2892;SDS011;1456;51.840;12.184;2023-06-22T11:36:13;21.50;;;20.63;;
2892;SDS011;1456;51.840;12.184;2023-06-22T11:38:42;23.53;;;22.63;;
2892;SDS011;1456;51.840;12.184;2023-06-22T11:41:08;21.70;;;20.90;;
2892;SDS011;1456;51.840;12.184;2023-06-22T11:43:34;23.07;;;22.23;;
2892;SDS011;1456;51.840;12.184;2023-06-22T11:46:02;21.83;;;21.13;;
2892;SDS011;1456;51.840;12.184;2023-06-22T11:48:28;22.57;;;21.77;;
2892;SDS011;1456;51.840;12.184;2023-06-22T11:50:54;20.60;;;19.90;;
2892;SDS011;1456;51.840;12.184;2023-06-22T11:53:24;21.90;;;21.00;;
2892;SDS011;1456;51.840;12.184;2023-06-22T11:55:51;19.90;;;19.20;;
2892;SDS011;1456;51.840;12.184;2023-06-22T11:58:19;21.43;;;20.60;;
2892;SDS011;1456;51.840;12.184;2023-06-22T12:00:44;21.00;;;20.40;;
2892;SDS011;1456;51.840;12.184;2023-06-22T12:03:10;22.23;;;21.33;;
2892;SDS011;1456;51.840;12.184;2023-06-22T12:05:37;22.63;;;21.73;;
2892;SDS011;1456;51.840;12.184;2023-06-22T12:08:03;22.20;;;21.40;;
2892;SDS011;1456;51.840;12.184;2023-06-22T12:10:30;22.17;;;21.03;;
2892;SDS011;1456;51.840;12.184;2023-06-22T12:12:56;21.53;;;20.77;;
2892;SDS011;1456;51.840;12.184;2023-06-22T12:15:24;21.43;;;20.63;;
2892;SDS011;1456;51.840;12.184;2023-06-22T12:17:49;23.13;;;22.23;;
2892;SDS011;1456;51.840;12.184;2023-06-22T12:20:16;20.60;;;20.00;;
2892;SDS011;1456;51.840;12.184;2023-06-22T12:22:42;19.77;;;19.10;;
2892;SDS011;1456;51.840;12.184;2023-06-22T12:25:08;20.50;;;19.70;;
2892;SDS011;1456;51.840;12.184;2023-06-22T12:27:38;22.57;;;21.77;;
2892;SDS011;1456;51.840;12.184;2023-06-22T12:30:04;22.13;;;21.33;;
2892;SDS011;1456;51.840;12.184;2023-06-22T12:32:31;22.90;;;21.90;;
2892;SDS011;1456;51.840;12.184;2023-06-22T12:34:56;23.23;;;22.33;;
2892;SDS011;1456;51.840;12.184;2023-06-22T12:37:22;20.90;;;20.23;;
2892;SDS011;1456;51.840;12.184;2023-06-22T12:39:48;21.50;;;20.80;;
2892;SDS011;1456;51.840;12.184;2023-06-22T12:42:15;22.00;;;21.20;;
2892;SDS011;1456;51.840;12.184;2023-06-22T12:44:41;22.70;;;21.80;;
2892;SDS011;1456;51.840;12.184;2023-06-22T12:47:06;22.80;;;22.00;;
2892;SDS011;1456;51.840;12.184;2023-06-22T12:49:33;22.00;;;21.30;;
2892;SDS011;1456;51.840;12.184;2023-06-22T12:52:00;22.40;;;21.60;;
2892;SDS011;1456;51.840;12.184;2023-06-22T12:54:26;22.70;;;21.77;;
2892;SDS011;1456;51.840;12.184;2023-06-22T12:56:53;22.70;;;21.90;;
2892;SDS011;1456;51.840;12.184;2023-06-22T12:59:19;20.63;;;19.93;;
2892;SDS011;1456;51.840;12.184;2023-06-22T13:01:45;23.13;;;22.13;;
2892;SDS011;1456;51.840;12.184;2023-06-22T13:04:13;20.23;;;19.63;;
2892;SDS011;1456;51.840;12.184;2023-06-22T13:06:43;21.33;;;20.13;;
2892;SDS011;1456;51.840;12.184;2023-06-22T13:09:13;20.97;;;20.27;;
2892;SDS011;1456;51.840;12.184;2023-06-22T13:11:41;21.53;;;20.83;;
2892;SDS011;1456;51.840;12.184;2023-06-22T13:14:09;22.80;;;22.00;;
2892;SDS011;1456;51.840;12.184;2023-06-22T13:16:35;25.23;;;23.87;;
2892;SDS011;1456;51.840;12.184;2023-06-22T13:19:00;25.63;;;24.43;;
2892;SDS011;1456;51.840;12.184;2023-06-22T13:21:26;23.10;;;22.30;;
2892;SDS011;1456;51.840;12.184;2023-06-22T13:23:53;24.83;;;23.93;;
2892;SDS011;1456;51.840;12.184;2023-06-22T13:26:20;24.47;;;23.53;;
2892;SDS011;1456;51.840;12.184;2023-06-22T13:28:48;22.70;;;21.80;;
2892;SDS011;1456;51.840;12.184;2023-06-22T13:31:14;23.87;;;22.87;;
2892;SDS011;1456;51.840;12.184;2023-06-22T13:33:40;23.97;;;23.20;;
2892;SDS011;1456;51.840;12.184;2023-06-22T13:36:06;22.83;;;21.93;;
2892;SDS011;1456;51.840;12.184;2023-06-22T13:38:36;23.10;;;22.40;;
2892;SDS011;1456;51.840;12.184;2023-06-22T13:41:04;22.83;;;22.03;;
2892;SDS011;1456;51.840;12.184;2023-06-22T13:43:31;24.17;;;22.97;;
2892;SDS011;1456;51.840;12.184;2023-06-22T13:45:57;23.40;;;22.30;;
2892;SDS011;1456;51.840;12.184;2023-06-22T13:48:23;23.33;;;22.40;;
2892;SDS011;1456;51.840;12.184;2023-06-22T13:50:50;24.23;;;23.33;;
2892;SDS011;1456;51.840;12.184;2023-06-22T13:53:18;24.80;;;23.83;;
2892;SDS011;1456;51.840;12.184;2023-06-22T13:55:43;24.37;;;23.47;;
2892;SDS011;1456;51.840;12.184;2023-06-22T14:00:38;23.30;;;22.50;;
2892;SDS011;1456;51.840;12.184;2023-06-22T14:03:05;25.33;;;24.53;;
2892;SDS011;1456;51.840;12.184;2023-06-22T14:05:31;25.93;;;25.03;;
2892;SDS011;1456;51.840;12.184;2023-06-22T14:07:58;25.50;;;24.60;;
2892;SDS011;1456;51.840;12.184;2023-06-22T14:10:23;25.60;;;24.70;;
2892;SDS011;1456;51.840;12.184;2023-06-22T14:12:51;23.43;;;22.60;;
2892;SDS011;1456;51.840;12.184;2023-06-22T14:15:18;24.27;;;23.37;;
2892;SDS011;1456;51.840;12.184;2023-06-22T14:17:43;24.47;;;23.60;;
2892;SDS011;1456;51.840;12.184;2023-06-22T14:20:09;23.40;;;22.53;;
2892;SDS011;1456;51.840;12.184;2023-06-22T14:22:35;22.87;;;22.07;;
2892;SDS011;1456;51.840;12.184;2023-06-22T14:25:01;23.70;;;22.60;;
2892;SDS011;1456;51.840;12.184;2023-06-22T14:27:27;23.10;;;22.30;;
2892;SDS011;1456;51.840;12.184;2023-06-22T14:29:53;21.43;;;20.63;;
2892;SDS011;1456;51.840;12.184;2023-06-22T14:32:18;22.80;;;21.70;;
2892;SDS011;1456;51.840;12.184;2023-06-22T14:54:16;19.70;;;19.00;;
2892;SDS011;1456;51.840;12.184;2023-06-22T14:56:42;20.43;;;19.67;;
2892;SDS011;1456;51.840;12.184;2023-06-22T14:59:08;21.17;;;20.27;;
2892;SDS011;1456;51.840;12.184;2023-06-22T15:01:36;20.93;;;20.23;;
2892;SDS011;1456;51.840;12.184;2023-06-22T15:04:04;22.17;;;21.10;;
2892;SDS011;1456;51.840;12.184;2023-06-22T15:06:31;21.20;;;20.50;;
2892;SDS011;1456;51.840;12.184;2023-06-22T15:08:56;20.97;;;20.07;;
2892;SDS011;1456;51.840;12.184;2023-06-22T15:11:22;20.53;;;19.63;;
2892;SDS011;1456;51.840;12.184;2023-06-22T15:13:48;21.23;;;20.23;;
2892;SDS011;1456;51.840;12.184;2023-06-22T15:16:13;18.73;;;18.13;;
2892;SDS011;1456;51.840;12.184;2023-06-22T15:18:41;20.23;;;19.53;;